createdAt,value
2018-05-27T00:01:32.492Z,18.89
2018-05-27T00:03:43.550Z,18.89
2018-05-27T00:05:54.722Z,18.84
2018-05-27T00:08:05.866Z,18.81
2018-05-27T00:10:17.025Z,18.72
2018-05-27T00:12:28.106Z,18.69
2018-05-27T00:14:39.237Z,18.62
2018-05-27T00:16:50.407Z,18.54
2018-05-27T00:19:01.484Z,18.52
2018-05-27T00:21:12.577Z,18.47
2018-05-27T00:23:23.651Z,18.42
2018-05-27T00:25:34.843Z,18.31
2018-05-27T00:27:45.890Z,18.20
2018-05-27T00:29:57.006Z,18.16
2018-05-27T00:32:08.127Z,18.12
2018-05-27T00:34:19.266Z,18.11
2018-05-27T00:36:30.402Z,18.15
2018-05-27T00:38:41.458Z,18.21
2018-05-27T00:40:52.563Z,18.27
2018-05-27T00:43:03.650Z,18.27
2018-05-27T00:45:14.723Z,18.26
2018-05-27T00:47:25.886Z,18.25
2018-05-27T00:49:37.047Z,18.21
2018-05-27T00:51:48.103Z,18.22
2018-05-27T00:53:59.376Z,18.22
2018-05-27T00:56:10.443Z,18.18
2018-05-27T00:58:21.558Z,18.26
2018-05-27T01:00:32.635Z,18.27
2018-05-27T01:02:43.701Z,18.22
2018-05-27T01:04:54.937Z,18.17
2018-05-27T01:07:05.999Z,18.16
2018-05-27T01:09:17.239Z,18.16
2018-05-27T01:11:28.382Z,18.16
2018-05-27T01:13:39.463Z,18.17
2018-05-27T01:15:50.591Z,18.19
2018-05-27T01:18:01.683Z,18.21
2018-05-27T01:20:12.770Z,18.20
2018-05-27T01:22:23.842Z,18.17
2018-05-27T01:24:34.976Z,18.20
2018-05-27T01:26:46.077Z,18.17
2018-05-27T01:28:57.261Z,18.21
2018-05-27T01:31:08.349Z,18.25
2018-05-27T01:33:19.508Z,18.24
2018-05-27T01:35:30.614Z,18.18
2018-05-27T01:37:41.683Z,18.14
2018-05-27T01:39:52.746Z,18.14
2018-05-27T01:42:03.834Z,18.15
2018-05-27T01:44:14.923Z,18.16
2018-05-27T01:46:26.127Z,18.21
2018-05-27T01:48:37.262Z,18.28
2018-05-27T01:50:48.412Z,18.30
2018-05-27T01:52:59.490Z,18.35
2018-05-27T01:55:10.570Z,18.38
2018-05-27T01:57:21.662Z,18.43
2018-05-27T01:59:32.731Z,18.46
2018-05-27T02:01:43.887Z,18.49
2018-05-27T02:03:55.003Z,18.44
2018-05-27T02:06:06.125Z,18.39
2018-05-27T02:08:17.352Z,18.37
2018-05-27T02:10:28.414Z,18.36
2018-05-27T02:12:39.502Z,18.33
2018-05-27T02:14:50.599Z,18.28
2018-05-27T02:17:01.763Z,18.24
2018-05-27T02:19:12.887Z,18.19
2018-05-27T02:21:23.995Z,18.20
2018-05-27T02:23:35.228Z,18.21
2018-05-27T02:25:46.355Z,18.24
2018-05-27T02:27:57.545Z,18.27
2018-05-27T02:30:08.625Z,18.27
2018-05-27T02:32:19.736Z,18.31
2018-05-27T02:34:30.825Z,18.21
2018-05-27T02:36:41.932Z,18.04
2018-05-27T02:38:53.111Z,17.88
2018-05-27T02:41:04.170Z,17.76
2018-05-27T02:43:15.334Z,17.69
2018-05-27T02:45:26.406Z,17.65
2018-05-27T02:47:37.579Z,17.62
2018-05-27T02:49:48.662Z,17.61
2018-05-27T02:51:59.746Z,17.64
2018-05-27T02:54:10.831Z,17.62
2018-05-27T02:56:21.935Z,17.66
2018-05-27T02:58:33.130Z,17.70
2018-05-27T03:00:44.239Z,17.73
2018-05-27T03:02:55.480Z,17.73
2018-05-27T03:05:06.608Z,17.68
2018-05-27T03:07:17.796Z,17.62
2018-05-27T03:09:28.895Z,17.60
2018-05-27T03:11:39.964Z,17.59
2018-05-27T03:13:51.051Z,17.57
2018-05-27T03:16:02.136Z,17.60
2018-05-27T03:18:13.314Z,17.64
2018-05-27T03:20:24.419Z,17.64
2018-05-27T03:22:35.524Z,17.61
2018-05-27T03:24:46.562Z,17.61
2018-05-27T03:26:57.755Z,17.63
2018-05-27T03:29:08.806Z,17.62
2018-05-27T03:31:19.894Z,17.61
2018-05-27T03:33:30.992Z,17.62
2018-05-27T03:35:42.052Z,17.64
2018-05-27T03:37:53.255Z,17.64
2018-05-27T03:40:04.346Z,17.67
2018-05-27T03:42:15.518Z,17.67
2018-05-27T03:44:26.578Z,17.69
2018-05-27T03:46:37.658Z,17.69
2018-05-27T03:48:48.723Z,17.74
2018-05-27T03:50:59.813Z,17.80
2018-05-27T03:53:10.895Z,17.83
2018-05-27T03:55:22.067Z,17.84
2018-05-27T03:57:33.246Z,17.86
2018-05-27T03:59:44.316Z,17.85
2018-05-27T04:01:55.542Z,17.85
2018-05-27T04:04:18.811Z,17.84
2018-05-27T04:06:42.142Z,17.79
2018-05-27T04:08:53.275Z,17.75
2018-05-27T04:11:04.348Z,17.76
2018-05-27T04:13:15.442Z,17.77
2018-05-27T04:15:26.522Z,17.78
2018-05-27T04:17:37.735Z,17.87
2018-05-27T04:19:48.808Z,17.86
2018-05-27T04:21:59.899Z,17.92
2018-05-27T04:24:11.015Z,18.00
2018-05-27T04:26:22.088Z,18.06
2018-05-27T04:28:33.311Z,18.13
2018-05-27T04:30:44.397Z,18.19
2018-05-27T04:32:55.555Z,18.24
2018-05-27T04:35:06.650Z,18.30
2018-05-27T04:37:17.723Z,18.35
2018-05-27T04:39:28.791Z,18.38
2018-05-27T04:41:39.887Z,18.41
2018-05-27T04:43:50.964Z,18.48
2018-05-27T04:46:02.110Z,18.52
2018-05-27T04:48:13.214Z,18.57
2018-05-27T04:50:24.462Z,18.60
2018-05-27T04:52:35.578Z,18.63
2018-05-27T04:54:46.714Z,18.65
2018-05-27T04:56:57.930Z,18.71
2018-05-27T04:59:09.039Z,18.74
2018-05-27T05:01:20.090Z,18.77
2018-05-27T05:03:31.162Z,18.76
2018-05-27T05:05:42.282Z,18.75
2018-05-27T05:07:53.545Z,18.75
2018-05-27T05:10:04.605Z,18.75
2018-05-27T05:12:15.827Z,18.79
2018-05-27T05:14:26.879Z,18.78
2018-05-27T05:16:38.160Z,18.76
2018-05-27T05:18:49.238Z,18.77
2018-05-27T05:21:00.306Z,18.81
2018-05-27T05:23:11.410Z,18.82
2018-05-27T05:25:22.459Z,18.84
2018-05-27T05:27:33.554Z,18.90
2018-05-27T05:29:44.682Z,18.95
2018-05-27T05:31:55.855Z,19.06
2018-05-27T05:34:07.040Z,19.17
2018-05-27T05:36:18.176Z,19.25
2018-05-27T05:38:29.176Z,19.34
2018-05-27T05:40:40.278Z,19.44
2018-05-27T05:42:51.348Z,19.59
2018-05-27T05:45:02.431Z,19.75
2018-05-27T05:47:13.541Z,19.92
2018-05-27T05:49:24.696Z,19.99
2018-05-27T05:51:36.604Z,20.18
2018-05-27T05:53:47.718Z,20.40
2018-05-27T05:55:58.874Z,20.58
2018-05-27T05:58:09.946Z,20.66
2018-05-27T06:00:21.044Z,20.81
2018-05-27T06:02:32.170Z,20.93
2018-05-27T06:04:43.291Z,21.05
2018-05-27T06:06:54.354Z,21.15
2018-05-27T06:09:05.421Z,21.31
2018-05-27T06:11:16.530Z,21.52
2018-05-27T06:13:27.701Z,21.68
2018-05-27T06:15:38.759Z,21.79
2018-05-27T06:17:50.010Z,21.89
2018-05-27T06:20:01.100Z,22.02
2018-05-27T06:22:12.291Z,22.11
2018-05-27T06:24:23.359Z,22.17
2018-05-27T06:26:34.435Z,22.16
2018-05-27T06:28:45.505Z,22.14
2018-05-27T06:30:56.666Z,22.18
2018-05-27T06:33:07.915Z,22.23
2018-05-27T06:35:18.981Z,22.34
2018-05-27T06:37:30.187Z,22.54
2018-05-27T06:39:41.250Z,22.77
2018-05-27T06:41:52.363Z,23.06
2018-05-27T06:44:03.438Z,23.29
2018-05-27T06:46:14.505Z,23.56
2018-05-27T06:48:25.673Z,23.87
2018-05-27T06:50:36.751Z,24.12
2018-05-27T06:52:48.046Z,24.44
2018-05-27T06:54:59.203Z,24.65
2018-05-27T06:57:10.346Z,24.88
2018-05-27T06:59:25.404Z,25.16
2018-05-27T07:01:36.510Z,25.39
2018-05-27T07:03:47.578Z,25.57
2018-05-27T07:05:58.693Z,25.78
2018-05-27T07:08:11.634Z,25.98
2018-05-27T07:10:22.749Z,26.13
2018-05-27T07:12:33.947Z,26.36
2018-05-27T07:14:45.071Z,26.67
2018-05-27T07:16:56.178Z,26.94
2018-05-27T07:19:07.284Z,27.32
2018-05-27T07:21:18.460Z,27.69
2018-05-27T07:23:29.547Z,28.02
2018-05-27T07:25:40.697Z,28.30
2018-05-27T07:27:51.785Z,28.34
2018-05-27T07:30:02.959Z,28.31
2018-05-27T07:32:14.105Z,28.11
2018-05-27T07:34:25.230Z,28.00
2018-05-27T07:36:36.425Z,27.98
2018-05-27T07:38:47.526Z,28.06
2018-05-27T07:40:58.630Z,28.11
2018-05-27T07:43:09.722Z,28.18
2018-05-27T07:45:20.834Z,28.26
2018-05-27T07:47:31.922Z,28.22
2018-05-27T07:49:43.079Z,28.03
2018-05-27T07:51:54.245Z,27.96
2018-05-27T07:54:05.323Z,27.90
2018-05-27T07:56:16.498Z,27.77
2018-05-27T07:58:27.672Z,27.65
2018-05-27T08:00:38.690Z,27.57
2018-05-27T08:02:49.812Z,27.45
2018-05-27T08:05:00.905Z,27.54
2018-05-27T08:07:12.061Z,27.63
2018-05-27T08:09:23.161Z,27.80
2018-05-27T08:11:34.419Z,28.01
2018-05-27T08:13:45.476Z,28.08
2018-05-27T08:15:57.407Z,28.25
2018-05-27T08:18:08.596Z,28.43
2018-05-27T08:20:19.727Z,28.56
2018-05-27T08:22:31.072Z,28.75
2018-05-27T08:24:42.284Z,28.74
2018-05-27T08:26:53.408Z,28.72
2018-05-27T08:29:04.695Z,28.68
2018-05-27T08:31:15.763Z,28.79
2018-05-27T08:33:26.908Z,29.05
2018-05-27T08:35:38.020Z,29.13
2018-05-27T08:37:49.107Z,29.18
2018-05-27T08:40:00.235Z,29.19
2018-05-27T08:42:11.386Z,29.14
2018-05-27T08:44:22.507Z,29.19
2018-05-27T08:46:33.635Z,29.17
2018-05-27T08:48:44.894Z,29.22
2018-05-27T08:50:55.987Z,29.29
2018-05-27T08:53:07.039Z,29.22
2018-05-27T08:55:18.158Z,29.03
2018-05-27T08:57:29.238Z,28.99
2018-05-27T08:59:40.446Z,29.05
2018-05-27T09:01:51.514Z,29.03
2018-05-27T09:04:02.679Z,29.16
2018-05-27T09:06:13.895Z,29.28
2018-05-27T09:08:25.127Z,29.35
2018-05-27T09:10:36.356Z,29.34
2018-05-27T09:12:47.473Z,29.37
2018-05-27T09:14:58.683Z,29.38
2018-05-27T09:17:09.742Z,29.58
2018-05-27T09:19:20.853Z,29.66
2018-05-27T09:21:31.985Z,29.79
2018-05-27T09:23:43.095Z,29.75
2018-05-27T09:25:56.167Z,29.82
2018-05-27T09:28:07.274Z,29.98
2018-05-27T09:30:18.588Z,29.81
2018-05-27T09:32:29.695Z,29.76
2018-05-27T09:34:40.910Z,29.72
2018-05-27T09:36:52.816Z,29.63
2018-05-27T09:39:04.676Z,29.63
2018-05-27T09:41:15.801Z,29.75
2018-05-27T09:43:28.899Z,29.90
2018-05-27T09:45:39.993Z,30.05
2018-05-27T09:47:51.200Z,30.16
2018-05-27T09:50:02.342Z,30.18
2018-05-27T09:52:13.471Z,30.04
2018-05-27T09:54:24.697Z,29.86
2018-05-27T09:56:35.814Z,29.75
2018-05-27T09:58:46.958Z,29.76
2018-05-27T10:00:58.059Z,29.93
2018-05-27T10:03:09.191Z,30.16
2018-05-27T10:05:20.318Z,30.37
2018-05-27T10:07:31.428Z,30.53
2018-05-27T10:09:42.710Z,30.57
2018-05-27T10:11:53.862Z,30.50
2018-05-27T10:14:05.058Z,30.44
2018-05-27T10:16:16.158Z,30.35
2018-05-27T10:18:27.290Z,30.49
2018-05-27T10:20:38.407Z,30.38
2018-05-27T10:22:49.630Z,30.50
2018-05-27T10:25:00.764Z,30.62
2018-05-27T10:27:11.847Z,30.57
2018-05-27T10:29:23.076Z,30.68
2018-05-27T10:31:35.879Z,30.87
2018-05-27T10:33:47.121Z,31.04
2018-05-27T10:35:58.227Z,31.19
2018-05-27T10:38:09.333Z,31.37
2018-05-27T10:40:20.543Z,31.43
2018-05-27T10:42:31.650Z,31.45
2018-05-27T10:44:42.739Z,31.50
2018-05-27T10:46:53.824Z,31.31
2018-05-27T10:49:05.015Z,31.15
2018-05-27T10:51:16.120Z,31.07
2018-05-27T10:53:27.329Z,31.21
2018-05-27T10:55:38.538Z,31.19
2018-05-27T10:57:49.671Z,31.20
2018-05-27T11:00:00.785Z,31.30
2018-05-27T11:02:11.835Z,31.47
2018-05-27T11:04:22.959Z,31.63
2018-05-27T11:06:34.077Z,31.48
2018-05-27T11:08:45.275Z,31.49
2018-05-27T11:10:56.478Z,31.55
2018-05-27T11:13:07.667Z,31.47
2018-05-27T11:15:18.795Z,31.24
2018-05-27T11:17:29.885Z,31.29
2018-05-27T11:19:41.095Z,31.38
2018-05-27T11:21:52.227Z,31.48
2018-05-27T11:24:03.356Z,31.55
2018-05-27T11:26:14.408Z,31.33
2018-05-27T11:28:25.555Z,30.96
2018-05-27T11:30:36.763Z,30.75
2018-05-27T11:32:47.945Z,30.74
2018-05-27T11:34:59.229Z,30.74
2018-05-27T11:37:10.322Z,30.72
2018-05-27T11:39:21.576Z,30.83
2018-05-27T11:41:32.753Z,30.89
2018-05-27T11:43:43.906Z,30.79
2018-05-27T11:45:55.102Z,30.87
2018-05-27T11:48:06.241Z,30.88
2018-05-27T11:50:17.362Z,30.83
2018-05-27T11:52:28.524Z,30.76
2018-05-27T11:54:39.645Z,30.63
2018-05-27T11:56:50.828Z,30.48
2018-05-27T11:59:01.974Z,30.30
2018-05-27T12:01:13.174Z,30.02
2018-05-27T12:03:24.303Z,29.86
2018-05-27T12:05:35.579Z,29.84
2018-05-27T12:07:46.663Z,29.87
2018-05-27T12:09:57.737Z,29.89
2018-05-27T12:12:08.923Z,29.92
2018-05-27T12:14:20.011Z,29.92
2018-05-27T12:16:31.286Z,29.86
2018-05-27T12:18:42.356Z,29.75
2018-05-27T12:20:53.562Z,29.75
2018-05-27T12:23:04.698Z,29.70
2018-05-27T12:25:15.955Z,29.68
2018-05-27T12:27:27.143Z,29.68
2018-05-27T12:29:38.295Z,29.64
2018-05-27T12:31:49.403Z,29.69
2018-05-27T12:34:00.507Z,29.63
2018-05-27T12:36:11.612Z,29.64
2018-05-27T12:38:22.724Z,29.59
2018-05-27T12:40:33.814Z,29.56
2018-05-27T12:42:45.068Z,29.50
2018-05-27T12:44:56.134Z,29.53
2018-05-27T12:47:07.278Z,29.55
2018-05-27T12:49:18.479Z,29.52
2018-05-27T12:51:29.568Z,29.53
2018-05-27T12:53:40.839Z,29.51
2018-05-27T12:55:51.920Z,29.55
2018-05-27T12:58:03.069Z,29.51
2018-05-27T13:00:14.195Z,29.48
2018-05-27T13:02:25.404Z,29.43
2018-05-27T13:04:36.506Z,29.37
2018-05-27T13:06:47.659Z,29.37
2018-05-27T13:08:58.939Z,29.41
2018-05-27T13:11:10.010Z,29.41
2018-05-27T13:13:21.320Z,29.33
2018-05-27T13:15:32.439Z,29.31
2018-05-27T13:17:43.599Z,29.32
2018-05-27T13:19:54.714Z,29.30
2018-05-27T13:22:05.764Z,29.34
2018-05-27T13:24:16.852Z,29.27
2018-05-27T13:26:27.978Z,29.17
2018-05-27T13:28:39.176Z,29.18
2018-05-27T13:30:50.334Z,29.06
2018-05-27T13:33:01.488Z,28.95
2018-05-27T13:35:12.597Z,28.91
2018-05-27T13:37:27.086Z,28.93
2018-05-27T13:39:38.202Z,28.94
2018-05-27T13:41:49.395Z,28.90
2018-05-27T13:44:00.529Z,28.93
2018-05-27T13:46:11.794Z,28.90
2018-05-27T13:48:22.985Z,28.88
2018-05-27T13:50:34.147Z,28.90
2018-05-27T13:52:45.352Z,28.85
2018-05-27T13:54:56.462Z,28.81
2018-05-27T13:57:07.761Z,28.86
2018-05-27T13:59:18.840Z,28.88
2018-05-27T14:01:29.972Z,28.88
2018-05-27T14:03:41.094Z,28.83
2018-05-27T14:05:52.170Z,28.87
2018-05-27T14:08:03.355Z,28.85
2018-05-27T14:10:14.476Z,28.87
2018-05-27T14:12:25.605Z,28.85
2018-05-27T14:14:36.686Z,28.81
2018-05-27T14:16:47.851Z,28.64
2018-05-27T14:18:58.918Z,28.66
2018-05-27T14:21:10.015Z,28.65
2018-05-27T14:23:21.118Z,28.64
2018-05-27T14:25:32.258Z,28.67
2018-05-27T14:27:43.499Z,28.70
2018-05-27T14:29:54.579Z,28.74
2018-05-27T14:32:05.818Z,28.79
2018-05-27T14:34:16.882Z,28.81
2018-05-27T14:36:28.009Z,28.86
2018-05-27T14:38:39.170Z,28.83
2018-05-27T14:40:50.248Z,28.85
2018-05-27T14:43:01.338Z,28.89
2018-05-27T14:45:12.474Z,28.92
2018-05-27T14:47:23.650Z,28.90
2018-05-27T14:49:34.784Z,28.85
2018-05-27T14:51:45.951Z,28.79
2018-05-27T14:53:57.054Z,28.87
2018-05-27T14:56:08.195Z,28.86
2018-05-27T14:58:19.266Z,28.85
2018-05-27T15:00:30.383Z,28.84
2018-05-27T15:02:41.478Z,28.90
2018-05-27T15:04:52.591Z,28.90
2018-05-27T15:07:03.778Z,28.91
2018-05-27T15:09:14.839Z,28.89
2018-05-27T15:11:26.014Z,28.90
2018-05-27T15:13:37.143Z,28.91
2018-05-27T15:15:48.276Z,28.83
2018-05-27T15:17:59.407Z,28.81
2018-05-27T15:20:10.568Z,28.75
2018-05-27T15:22:21.683Z,28.70
2018-05-27T15:24:32.746Z,28.67
2018-05-27T15:26:43.851Z,28.55
2018-05-27T15:28:55.089Z,28.55
2018-05-27T15:31:06.215Z,28.48
2018-05-27T15:33:17.294Z,28.44
2018-05-27T15:35:28.400Z,28.46
2018-05-27T15:37:39.560Z,28.43
2018-05-27T15:39:50.632Z,28.40
2018-05-27T15:42:01.783Z,28.38
2018-05-27T15:44:12.897Z,28.37
2018-05-27T15:46:24.251Z,28.33
2018-05-27T15:48:35.440Z,28.31
2018-05-27T15:50:46.573Z,28.29
2018-05-27T15:52:57.765Z,28.28
2018-05-27T15:55:08.872Z,28.24
2018-05-27T15:57:20.089Z,28.18
2018-05-27T15:59:31.217Z,28.13
2018-05-27T16:01:42.348Z,28.13
2018-05-27T16:03:53.430Z,28.12
2018-05-27T16:06:04.560Z,28.10
2018-05-27T16:08:15.677Z,28.16
2018-05-27T16:10:26.826Z,28.19
2018-05-27T16:12:38.115Z,28.16
2018-05-27T16:14:49.358Z,28.16
2018-05-27T16:17:00.679Z,28.15
2018-05-27T16:19:11.884Z,28.15
2018-05-27T16:21:22.962Z,28.14
2018-05-27T16:23:34.206Z,28.13
2018-05-27T16:25:45.394Z,28.09
2018-05-27T16:27:56.551Z,28.03
2018-05-27T16:30:07.640Z,27.98
2018-05-27T16:32:18.776Z,27.92
2018-05-27T16:34:29.862Z,27.89
2018-05-27T16:36:40.946Z,27.87
2018-05-27T16:38:52.235Z,27.80
2018-05-27T16:41:03.435Z,27.78
2018-05-27T16:43:14.585Z,27.79
2018-05-27T16:45:25.720Z,27.82
2018-05-27T16:47:36.827Z,27.86
2018-05-27T16:49:48.031Z,27.88
2018-05-27T16:51:59.188Z,27.93
2018-05-27T16:54:10.272Z,27.95
2018-05-27T16:56:21.354Z,27.99
2018-05-27T16:58:32.579Z,28.01
2018-05-27T17:00:43.705Z,28.01
2018-05-27T17:02:54.839Z,27.96
2018-05-27T17:05:06.116Z,27.93
2018-05-27T17:07:17.215Z,27.94
2018-05-27T17:09:28.523Z,27.95
2018-05-27T17:11:39.641Z,27.97
2018-05-27T17:13:50.771Z,28.02
2018-05-27T17:16:01.938Z,28.01
2018-05-27T17:18:13.031Z,27.99
2018-05-27T17:20:24.135Z,27.96
2018-05-27T17:22:35.248Z,27.85
2018-05-27T17:24:46.356Z,27.77
2018-05-27T17:26:57.454Z,27.72
2018-05-27T17:29:08.670Z,27.62
2018-05-27T17:31:19.763Z,27.52
2018-05-27T17:33:30.855Z,27.51
2018-05-27T17:35:42.041Z,27.47
2018-05-27T17:37:53.122Z,27.42
2018-05-27T17:40:04.255Z,27.39
2018-05-27T17:42:15.346Z,27.33
2018-05-27T17:44:26.465Z,27.30
2018-05-27T17:46:37.625Z,27.26
2018-05-27T17:48:48.816Z,27.18
2018-05-27T17:51:00.082Z,27.05
2018-05-27T17:53:11.223Z,26.77
2018-05-27T17:55:22.347Z,26.60
2018-05-27T17:57:33.494Z,26.50
2018-05-27T17:59:44.569Z,26.40
2018-05-27T18:01:55.668Z,26.26
2018-05-27T18:04:06.917Z,26.08
2018-05-27T18:06:18.006Z,25.91
2018-05-27T18:08:29.170Z,25.78
2018-05-27T18:10:40.451Z,25.65
2018-05-27T18:12:51.606Z,25.49
2018-05-27T18:15:02.746Z,25.33
2018-05-27T18:17:13.858Z,25.30
2018-05-27T18:19:25.006Z,25.18
2018-05-27T18:21:36.110Z,25.12
2018-05-27T18:23:47.235Z,25.03
2018-05-27T18:25:58.469Z,24.91
2018-05-27T18:28:09.547Z,24.88
2018-05-27T18:30:20.711Z,24.80
2018-05-27T18:32:31.785Z,24.81
2018-05-27T18:34:42.927Z,24.74
2018-05-27T18:36:54.023Z,24.70
2018-05-27T18:39:05.174Z,24.63
2018-05-27T18:41:16.326Z,24.48
2018-05-27T18:43:27.387Z,24.47
2018-05-27T18:45:38.646Z,24.45
2018-05-27T18:47:49.735Z,24.36
2018-05-27T18:50:00.876Z,24.27
2018-05-27T18:52:12.107Z,24.19
2018-05-27T18:54:23.328Z,24.11
2018-05-27T18:56:34.542Z,24.08
2018-05-27T18:58:45.652Z,24.01
2018-05-27T19:00:56.876Z,24.00
2018-05-27T19:03:07.950Z,23.99
2018-05-27T19:05:19.050Z,24.00
2018-05-27T19:07:30.152Z,23.98
2018-05-27T19:09:41.293Z,23.96
2018-05-27T19:11:52.440Z,23.92
2018-05-27T19:14:03.582Z,23.86
2018-05-27T19:16:14.754Z,23.83
2018-05-27T19:18:25.870Z,23.74
2018-05-27T19:20:37.054Z,23.56
2018-05-27T19:22:48.134Z,23.44
2018-05-27T19:24:59.238Z,23.26
2018-05-27T19:27:10.347Z,23.15
2018-05-27T19:29:21.448Z,23.12
2018-05-27T19:31:32.697Z,23.26
2018-05-27T19:33:43.831Z,23.50
2018-05-27T19:35:55.018Z,23.70
2018-05-27T19:38:06.130Z,23.87
2018-05-27T19:40:17.268Z,24.02
2018-05-27T19:42:28.371Z,24.12
2018-05-27T19:44:39.474Z,24.19
2018-05-27T19:46:50.580Z,24.18
2018-05-27T19:49:01.735Z,24.17
2018-05-27T19:51:12.866Z,24.15
2018-05-27T19:53:24.035Z,24.12
2018-05-27T19:55:35.150Z,24.05
2018-05-27T19:57:46.363Z,23.94
2018-05-27T19:59:57.515Z,23.91
2018-05-27T20:02:08.699Z,23.75
2018-05-27T20:04:19.794Z,23.51
2018-05-27T20:06:30.910Z,23.32
2018-05-27T20:08:42.013Z,23.13
2018-05-27T20:10:53.223Z,22.95
2018-05-27T20:13:04.367Z,22.88
2018-05-27T20:15:15.508Z,22.78
2018-05-27T20:17:26.712Z,22.75
2018-05-27T20:19:37.861Z,22.68
2018-05-27T20:21:49.047Z,22.63
2018-05-27T20:24:00.175Z,22.57
2018-05-27T20:26:11.305Z,22.52
2018-05-27T20:28:22.491Z,22.55
2018-05-27T20:30:33.610Z,22.58
2018-05-27T20:32:44.755Z,22.57
2018-05-27T20:34:55.861Z,22.59
2018-05-27T20:37:07.049Z,22.53
2018-05-27T20:39:18.253Z,22.47
2018-05-27T20:41:29.328Z,22.45
2018-05-27T20:43:40.470Z,22.40
2018-05-27T20:45:51.595Z,22.42
2018-05-27T20:48:02.746Z,22.44
2018-05-27T20:50:13.823Z,22.39
2018-05-27T20:52:24.952Z,22.31
2018-05-27T20:54:36.060Z,22.24
2018-05-27T20:56:47.282Z,22.19
2018-05-27T20:58:58.406Z,22.13
2018-05-27T21:01:09.598Z,22.13
2018-05-27T21:03:20.770Z,22.09
2018-05-27T21:05:31.886Z,21.98
2018-05-27T21:07:43.087Z,21.93
2018-05-27T21:09:54.202Z,21.95
2018-05-27T21:12:05.305Z,21.98
2018-05-27T21:14:16.406Z,22.05
2018-05-27T21:16:27.515Z,22.08
2018-05-27T21:18:38.629Z,22.11
2018-05-27T21:20:49.798Z,22.15
2018-05-27T21:23:01.004Z,22.19
2018-05-27T21:25:12.074Z,22.20
2018-05-27T21:27:23.258Z,22.23
2018-05-27T21:29:34.434Z,22.23
2018-05-27T21:31:45.542Z,22.23
2018-05-27T21:33:56.630Z,22.16
2018-05-27T21:36:07.750Z,22.09
2018-05-27T21:38:18.845Z,22.06
2018-05-27T21:40:29.959Z,22.00
2018-05-27T21:42:41.083Z,21.90
2018-05-27T21:44:52.165Z,21.81
2018-05-27T21:47:03.323Z,21.74
2018-05-27T21:49:14.418Z,21.71
2018-05-27T21:51:25.554Z,21.72
2018-05-27T21:53:36.638Z,21.72
2018-05-27T21:55:47.714Z,21.71
2018-05-27T21:57:58.915Z,21.69
2018-05-27T22:00:09.995Z,21.60
2018-05-27T22:02:21.227Z,21.53
2018-05-27T22:04:32.305Z,21.44
2018-05-27T22:06:43.530Z,21.39
2018-05-27T22:08:54.613Z,21.33
2018-05-27T22:11:05.667Z,21.34
2018-05-27T22:13:16.816Z,21.28
2018-05-27T22:15:27.907Z,21.20
2018-05-27T22:17:39.083Z,21.15
2018-05-27T22:19:50.143Z,21.14
2018-05-27T22:22:01.238Z,21.09
2018-05-27T22:24:12.370Z,21.06
2018-05-27T22:26:23.628Z,21.03
2018-05-27T22:28:34.712Z,21.00
2018-05-27T22:30:45.778Z,20.99
2018-05-27T22:32:56.866Z,20.98
2018-05-27T22:35:07.964Z,20.97
2018-05-27T22:37:19.047Z,20.79
2018-05-27T22:39:30.147Z,20.68
2018-05-27T22:41:41.369Z,20.56
2018-05-27T22:43:52.482Z,20.48
2018-05-27T22:46:03.749Z,20.38
2018-05-27T22:48:14.843Z,20.34
2018-05-27T22:50:25.943Z,20.35
2018-05-27T22:52:37.035Z,20.37
2018-05-27T22:54:48.159Z,20.37
2018-05-27T22:56:59.266Z,20.28
2018-05-27T22:59:10.427Z,20.18
2018-05-27T23:01:21.550Z,20.19
2018-05-27T23:03:32.620Z,20.19
2018-05-27T23:05:43.748Z,20.20
2018-05-27T23:07:54.815Z,20.22
2018-05-27T23:10:06.744Z,20.23
2018-05-27T23:12:17.830Z,20.28
2018-05-27T23:14:28.924Z,20.28
2018-05-27T23:16:40.044Z,20.27
2018-05-27T23:18:51.134Z,20.20
2018-05-27T23:21:02.234Z,20.13
2018-05-27T23:23:13.367Z,20.08
2018-05-27T23:25:24.533Z,20.00
2018-05-27T23:27:35.633Z,19.94
2018-05-27T23:29:46.767Z,19.98
2018-05-27T23:31:57.950Z,19.98
2018-05-27T23:34:09.110Z,19.85
2018-05-27T23:36:20.171Z,19.84
2018-05-27T23:38:31.231Z,19.86
2018-05-27T23:40:42.312Z,19.87
2018-05-27T23:42:53.590Z,19.86
2018-05-27T23:45:04.646Z,19.85
2018-05-27T23:47:15.851Z,19.87
2018-05-27T23:49:26.903Z,19.88
2018-05-27T23:51:38.071Z,19.92
2018-05-27T23:53:49.150Z,19.95
2018-05-27T23:56:00.206Z,19.95
2018-05-27T23:58:11.300Z,19.93
